Terminal Aerodrome Forecast
Issued by NWS Riverton, WY

Home | Current Version | Previous Version | Text Only | Print | Product List | Glossary On
Versions: 1 2 3 4 5 6 7 8 9 10 11 12 13 14 15 16 17
000
FTUS45 KRIW 262000 AAA
TAFRIW
TAF AMD
KRIW 262014Z 2620/2718 VRB06KT P6SM FEW080 SCT250
     FM262200 31018G28KT P6SM FEW080 SCT250
     FM270300 31014KT P6SM FEW200
     FM270700 30008KT P6SM SKC=

USA.gov is the U.S. government's official web portal to all federal, state and local government web resources and services.